sensor_id;sensor_type;location;lat;lon;timestamp;P1;durP1;ratioP1;P2;durP2;ratioP2
1106;SDS011;540;49.448;8.612;2023-05-07T08:51:49;4.38;;;1.90;;
1106;SDS011;540;49.448;8.612;2023-05-07T08:54:19;3.40;;;2.03;;
1106;SDS011;540;49.448;8.612;2023-05-07T08:56:50;2.83;;;2.13;;
1106;SDS011;540;49.448;8.612;2023-05-07T08:59:19;4.28;;;1.67;;
1106;SDS011;540;49.448;8.612;2023-05-07T09:01:47;3.30;;;2.15;;
1106;SDS011;540;49.448;8.612;2023-05-07T09:04:15;3.55;;;2.03;;
1106;SDS011;540;49.448;8.612;2023-05-07T09:06:43;8.88;;;6.25;;
1106;SDS011;540;49.448;8.612;2023-05-07T09:09:14;5.75;;;3.78;;
1106;SDS011;540;49.448;8.612;2023-05-07T09:11:44;4.80;;;2.60;;
1106;SDS011;540;49.448;8.612;2023-05-07T09:14:12;3.72;;;2.25;;
1106;SDS011;540;49.448;8.612;2023-05-07T09:16:41;3.10;;;2.13;;
1106;SDS011;540;49.448;8.612;2023-05-07T09:19:09;3.08;;;2.30;;
1106;SDS011;540;49.448;8.612;2023-05-07T09:21:36;3.65;;;2.10;;
1106;SDS011;540;49.448;8.612;2023-05-07T09:24:04;4.65;;;3.60;;
1106;SDS011;540;49.448;8.612;2023-05-07T09:26:34;4.28;;;3.30;;
1106;SDS011;540;49.448;8.612;2023-05-07T09:29:02;7.15;;;4.78;;
1106;SDS011;540;49.448;8.612;2023-05-07T09:31:30;4.35;;;3.55;;
1106;SDS011;540;49.448;8.612;2023-05-07T09:33:58;4.57;;;2.47;;
1106;SDS011;540;49.448;8.612;2023-05-07T09:36:26;4.15;;;2.05;;
1106;SDS011;540;49.448;8.612;2023-05-07T09:38:55;4.80;;;2.72;;
1106;SDS011;540;49.448;8.612;2023-05-07T09:41:26;4.40;;;3.45;;
1106;SDS011;540;49.448;8.612;2023-05-07T09:43:55;5.82;;;3.92;;
1106;SDS011;540;49.448;8.612;2023-05-07T09:46:25;3.40;;;2.00;;
1106;SDS011;540;49.448;8.612;2023-05-07T09:48:56;4.30;;;2.13;;
1106;SDS011;540;49.448;8.612;2023-05-07T09:51:25;6.60;;;1.60;;
1106;SDS011;540;49.448;8.612;2023-05-07T09:53:57;1.63;;;1.45;;
1106;SDS011;540;49.448;8.612;2023-05-07T09:56:27;3.17;;;1.48;;
1106;SDS011;540;49.448;8.612;2023-05-07T09:58:58;3.58;;;1.90;;
1106;SDS011;540;49.448;8.612;2023-05-07T10:01:27;2.20;;;1.60;;
1106;SDS011;540;49.448;8.612;2023-05-07T10:03:58;2.28;;;1.58;;
1106;SDS011;540;49.448;8.612;2023-05-07T10:06:26;5.90;;;2.22;;
1106;SDS011;540;49.448;8.612;2023-05-07T10:08:56;6.45;;;2.10;;
1106;SDS011;540;49.448;8.612;2023-05-07T10:11:25;2.53;;;2.13;;
1106;SDS011;540;49.448;8.612;2023-05-07T10:13:53;2.50;;;1.95;;
1106;SDS011;540;49.448;8.612;2023-05-07T10:16:23;2.33;;;1.80;;
1106;SDS011;540;49.448;8.612;2023-05-07T10:18:52;3.60;;;1.67;;
1106;SDS011;540;49.448;8.612;2023-05-07T10:21:23;4.25;;;3.17;;
1106;SDS011;540;49.448;8.612;2023-05-07T10:23:51;2.10;;;1.80;;
1106;SDS011;540;49.448;8.612;2023-05-07T10:26:25;3.65;;;1.77;;
1106;SDS011;540;49.448;8.612;2023-05-07T10:28:57;5.85;;;1.92;;
1106;SDS011;540;49.448;8.612;2023-05-07T10:31:36;1.90;;;1.80;;
1106;SDS011;540;49.448;8.612;2023-05-07T10:34:11;2.70;;;1.90;;
1106;SDS011;540;49.448;8.612;2023-05-07T10:36:43;1.75;;;1.65;;
1106;SDS011;540;49.448;8.612;2023-05-07T10:39:11;5.57;;;1.90;;
1106;SDS011;540;49.448;8.612;2023-05-07T10:41:40;2.50;;;1.98;;
1106;SDS011;540;49.448;8.612;2023-05-07T10:44:07;4.32;;;2.28;;
1106;SDS011;540;49.448;8.612;2023-05-07T10:46:37;1.88;;;1.70;;
1106;SDS011;540;49.448;8.612;2023-05-07T10:49:06;3.30;;;1.80;;
1106;SDS011;540;49.448;8.612;2023-05-07T10:51:34;3.30;;;1.70;;
1106;SDS011;540;49.448;8.612;2023-05-07T10:54:18;3.95;;;2.33;;
1106;SDS011;540;49.448;8.612;2023-05-07T10:56:48;1.80;;;1.52;;
1106;SDS011;540;49.448;8.612;2023-05-07T10:59:35;4.97;;;1.90;;
1106;SDS011;540;49.448;8.612;2023-05-07T11:02:10;3.92;;;3.53;;
1106;SDS011;540;49.448;8.612;2023-05-07T11:04:40;1.88;;;1.40;;
1106;SDS011;540;49.448;8.612;2023-05-07T11:07:20;3.35;;;1.75;;
1106;SDS011;540;49.448;8.612;2023-05-07T11:09:58;1.27;;;1.17;;
1106;SDS011;540;49.448;8.612;2023-05-07T11:15:35;4.22;;;3.10;;
1106;SDS011;540;49.448;8.612;2023-05-07T11:18:06;1.95;;;1.55;;
1106;SDS011;540;49.448;8.612;2023-05-07T11:20:50;1.48;;;1.25;;
1106;SDS011;540;49.448;8.612;2023-05-07T11:26:26;4.35;;;3.60;;
1106;SDS011;540;49.448;8.612;2023-05-07T11:28:55;1.73;;;1.48;;
1106;SDS011;540;49.448;8.612;2023-05-07T11:31:24;1.58;;;1.25;;
1106;SDS011;540;49.448;8.612;2023-05-07T11:33:56;2.03;;;1.52;;
1106;SDS011;540;49.448;8.612;2023-05-07T11:36:24;1.73;;;1.23;;
1106;SDS011;540;49.448;8.612;2023-05-07T11:38:53;1.60;;;1.40;;
1106;SDS011;540;49.448;8.612;2023-05-07T11:41:22;2.33;;;1.52;;
1106;SDS011;540;49.448;8.612;2023-05-07T11:43:56;1.48;;;1.30;;
1106;SDS011;540;49.448;8.612;2023-05-07T11:46:26;3.10;;;1.42;;
1106;SDS011;540;49.448;8.612;2023-05-07T11:48:56;1.65;;;1.20;;
1106;SDS011;540;49.448;8.612;2023-05-07T11:51:24;3.78;;;1.42;;
1106;SDS011;540;49.448;8.612;2023-05-07T11:53:53;2.03;;;1.38;;
1106;SDS011;540;49.448;8.612;2023-05-07T11:56:21;2.75;;;1.10;;
1106;SDS011;540;49.448;8.612;2023-05-07T11:58:48;3.45;;;1.60;;
1106;SDS011;540;49.448;8.612;2023-05-07T12:01:18;2.50;;;1.52;;
1106;SDS011;540;49.448;8.612;2023-05-07T12:03:45;2.63;;;1.42;;
1106;SDS011;540;49.448;8.612;2023-05-07T12:06:16;2.38;;;1.77;;
1106;SDS011;540;49.448;8.612;2023-05-07T12:08:44;3.97;;;2.10;;
1106;SDS011;540;49.448;8.612;2023-05-07T12:11:14;4.40;;;1.63;;
1106;SDS011;540;49.448;8.612;2023-05-07T12:13:44;5.30;;;1.58;;
1106;SDS011;540;49.448;8.612;2023-05-07T12:16:12;1.50;;;1.13;;
1106;SDS011;540;49.448;8.612;2023-05-07T12:18:41;1.90;;;1.33;;
1106;SDS011;540;49.448;8.612;2023-05-07T12:21:09;4.90;;;1.70;;
1106;SDS011;540;49.448;8.612;2023-05-07T12:23:39;2.00;;;1.10;;
1106;SDS011;540;49.448;8.612;2023-05-07T12:26:07;2.70;;;1.30;;
1106;SDS011;540;49.448;8.612;2023-05-07T12:28:36;2.10;;;1.42;;
1106;SDS011;540;49.448;8.612;2023-05-07T12:31:06;1.55;;;1.45;;
1106;SDS011;540;49.448;8.612;2023-05-07T12:33:34;2.33;;;1.30;;
1106;SDS011;540;49.448;8.612;2023-05-07T12:36:03;2.60;;;2.05;;
1106;SDS011;540;49.448;8.612;2023-05-07T12:38:36;3.75;;;1.50;;
1106;SDS011;540;49.448;8.612;2023-05-07T12:41:07;3.88;;;1.85;;
1106;SDS011;540;49.448;8.612;2023-05-07T12:43:36;1.20;;;1.08;;
1106;SDS011;540;49.448;8.612;2023-05-07T12:46:05;2.67;;;1.45;;
1106;SDS011;540;49.448;8.612;2023-05-07T12:48:35;2.28;;;1.27;;
1106;SDS011;540;49.448;8.612;2023-05-07T12:51:05;1.70;;;1.40;;
1106;SDS011;540;49.448;8.612;2023-05-07T12:53:33;2.58;;;1.40;;
1106;SDS011;540;49.448;8.612;2023-05-07T12:56:09;1.70;;;1.60;;
1106;SDS011;540;49.448;8.612;2023-05-07T12:58:37;1.90;;;1.25;;
1106;SDS011;540;49.448;8.612;2023-05-07T13:01:05;1.50;;;1.40;;
1106;SDS011;540;49.448;8.612;2023-05-07T13:03:36;3.80;;;1.80;;
1106;SDS011;540;49.448;8.612;2023-05-07T13:06:06;1.80;;;1.33;;
1106;SDS011;540;49.448;8.612;2023-05-07T13:08:36;3.60;;;1.70;;
1106;SDS011;540;49.448;8.612;2023-05-07T13:11:08;3.47;;;1.40;;
1106;SDS011;540;49.448;8.612;2023-05-07T13:13:37;3.15;;;1.60;;
1106;SDS011;540;49.448;8.612;2023-05-07T13:16:07;1.83;;;1.30;;
1106;SDS011;540;49.448;8.612;2023-05-07T13:18:37;1.83;;;1.35;;
1106;SDS011;540;49.448;8.612;2023-05-07T13:21:06;2.35;;;1.40;;
1106;SDS011;540;49.448;8.612;2023-05-07T13:23:34;1.38;;;1.27;;
1106;SDS011;540;49.448;8.612;2023-05-07T13:26:04;2.80;;;1.85;;
1106;SDS011;540;49.448;8.612;2023-05-07T13:28:51;1.42;;;1.33;;
1106;SDS011;540;49.448;8.612;2023-05-07T13:31:19;2.22;;;1.42;;
1106;SDS011;540;49.448;8.612;2023-05-07T13:33:47;1.63;;;1.40;;
1106;SDS011;540;49.448;8.612;2023-05-07T13:36:15;3.70;;;1.67;;
1106;SDS011;540;49.448;8.612;2023-05-07T13:38:43;6.00;;;3.03;;
1106;SDS011;540;49.448;8.612;2023-05-07T13:41:11;9.15;;;3.25;;
1106;SDS011;540;49.448;8.612;2023-05-07T13:43:39;15.25;;;4.60;;
1106;SDS011;540;49.448;8.612;2023-05-07T13:46:08;4.68;;;2.75;;
1106;SDS011;540;49.448;8.612;2023-05-07T13:48:36;5.13;;;2.58;;
1106;SDS011;540;49.448;8.612;2023-05-07T13:51:04;3.35;;;1.88;;
1106;SDS011;540;49.448;8.612;2023-05-07T13:53:31;3.75;;;2.05;;
1106;SDS011;540;49.448;8.612;2023-05-07T13:55:59;6.15;;;2.30;;
1106;SDS011;540;49.448;8.612;2023-05-07T13:58:27;6.50;;;3.00;;
1106;SDS011;540;49.448;8.612;2023-05-07T14:00:55;6.07;;;2.75;;
1106;SDS011;540;49.448;8.612;2023-05-07T14:03:24;8.88;;;2.70;;
1106;SDS011;540;49.448;8.612;2023-05-07T14:05:52;7.82;;;2.80;;
1106;SDS011;540;49.448;8.612;2023-05-07T14:08:20;3.95;;;2.63;;
1106;SDS011;540;49.448;8.612;2023-05-07T14:10:48;4.63;;;2.42;;
1106;SDS011;540;49.448;8.612;2023-05-07T14:13:15;3.50;;;2.63;;
1106;SDS011;540;49.448;8.612;2023-05-07T14:15:43;7.03;;;2.97;;
1106;SDS011;540;49.448;8.612;2023-05-07T14:18:12;7.10;;;2.53;;
1106;SDS011;540;49.448;8.612;2023-05-07T14:20:42;4.10;;;1.95;;
1106;SDS011;540;49.448;8.612;2023-05-07T14:23:12;4.50;;;2.15;;
1106;SDS011;540;49.448;8.612;2023-05-07T14:25:40;2.42;;;1.48;;
1106;SDS011;540;49.448;8.612;2023-05-07T14:28:09;2.50;;;1.70;;
1106;SDS011;540;49.448;8.612;2023-05-07T14:30:37;2.70;;;1.58;;
1106;SDS011;540;49.448;8.612;2023-05-07T14:33:05;3.70;;;1.80;;
1106;SDS011;540;49.448;8.612;2023-05-07T14:35:32;3.70;;;1.48;;
1106;SDS011;540;49.448;8.612;2023-05-07T14:38:02;3.65;;;1.67;;
1106;SDS011;540;49.448;8.612;2023-05-07T14:40:30;4.90;;;1.80;;
1106;SDS011;540;49.448;8.612;2023-05-07T14:42:58;3.70;;;2.30;;
1106;SDS011;540;49.448;8.612;2023-05-07T14:45:26;2.95;;;2.00;;
1106;SDS011;540;49.448;8.612;2023-05-07T14:47:53;10.07;;;2.90;;
1106;SDS011;540;49.448;8.612;2023-05-07T14:50:21;8.07;;;2.03;;
1106;SDS011;540;49.448;8.612;2023-05-07T14:52:49;5.60;;;2.47;;
1106;SDS011;540;49.448;8.612;2023-05-07T14:55:18;4.90;;;2.90;;
1106;SDS011;540;49.448;8.612;2023-05-07T14:57:46;4.95;;;2.55;;
1106;SDS011;540;49.448;8.612;2023-05-07T15:00:14;5.25;;;2.78;;
1106;SDS011;540;49.448;8.612;2023-05-07T15:02:42;5.80;;;2.72;;
1106;SDS011;540;49.448;8.612;2023-05-07T15:05:10;8.95;;;3.60;;
1106;SDS011;540;49.448;8.612;2023-05-07T15:07:39;4.63;;;3.03;;
1106;SDS011;540;49.448;8.612;2023-05-07T15:10:07;8.82;;;4.13;;
1106;SDS011;540;49.448;8.612;2023-05-07T15:12:36;6.10;;;4.40;;
1106;SDS011;540;49.448;8.612;2023-05-07T15:15:05;7.68;;;3.75;;
1106;SDS011;540;49.448;8.612;2023-05-07T15:17:33;5.72;;;3.42;;
1106;SDS011;540;49.448;8.612;2023-05-07T15:20:01;6.55;;;3.65;;
1106;SDS011;540;49.448;8.612;2023-05-07T15:22:30;7.10;;;3.30;;
1106;SDS011;540;49.448;8.612;2023-05-07T15:24:58;4.63;;;2.92;;
1106;SDS011;540;49.448;8.612;2023-05-07T15:27:26;3.90;;;3.08;;
1106;SDS011;540;49.448;8.612;2023-05-07T15:29:55;6.63;;;4.35;;
1106;SDS011;540;49.448;8.612;2023-05-07T15:32:23;6.78;;;3.88;;
1106;SDS011;540;49.448;8.612;2023-05-07T15:34:51;4.47;;;3.30;;
1106;SDS011;540;49.448;8.612;2023-05-07T15:37:19;7.30;;;3.47;;
1106;SDS011;540;49.448;8.612;2023-05-07T15:39:46;4.70;;;2.90;;
1106;SDS011;540;49.448;8.612;2023-05-07T15:42:14;6.68;;;3.85;;
1106;SDS011;540;49.448;8.612;2023-05-07T15:44:42;5.32;;;2.90;;
1106;SDS011;540;49.448;8.612;2023-05-07T15:47:12;6.25;;;3.22;;
1106;SDS011;540;49.448;8.612;2023-05-07T15:49:40;4.57;;;2.70;;
1106;SDS011;540;49.448;8.612;2023-05-07T15:52:08;2.85;;;1.95;;
1106;SDS011;540;49.448;8.612;2023-05-07T15:54:37;2.85;;;2.28;;
1106;SDS011;540;49.448;8.612;2023-05-07T15:57:04;5.88;;;3.10;;
1106;SDS011;540;49.448;8.612;2023-05-07T15:59:33;6.40;;;3.92;;
1106;SDS011;540;49.448;8.612;2023-05-07T16:02:01;6.03;;;4.00;;
1106;SDS011;540;49.448;8.612;2023-05-07T16:04:30;3.42;;;2.92;;
1106;SDS011;540;49.448;8.612;2023-05-07T16:06:58;4.60;;;2.78;;
1106;SDS011;540;49.448;8.612;2023-05-07T16:09:26;5.63;;;2.60;;
1106;SDS011;540;49.448;8.612;2023-05-07T16:11:54;6.72;;;2.58;;
1106;SDS011;540;49.448;8.612;2023-05-07T16:14:22;6.70;;;2.75;;
1106;SDS011;540;49.448;8.612;2023-05-07T16:16:50;3.75;;;2.40;;
1106;SDS011;540;49.448;8.612;2023-05-07T16:19:20;4.30;;;2.78;;
1106;SDS011;540;49.448;8.612;2023-05-07T16:21:50;3.80;;;2.50;;
1106;SDS011;540;49.448;8.612;2023-05-07T16:24:18;5.13;;;2.05;;
1106;SDS011;540;49.448;8.612;2023-05-07T16:26:45;4.07;;;2.50;;
1106;SDS011;540;49.448;8.612;2023-05-07T16:29:13;23.63;;;10.20;;
1106;SDS011;540;49.448;8.612;2023-05-07T16:31:41;2.45;;;1.80;;
1106;SDS011;540;49.448;8.612;2023-05-07T16:34:09;4.10;;;1.98;;
1106;SDS011;540;49.448;8.612;2023-05-07T16:36:37;4.55;;;2.28;;
1106;SDS011;540;49.448;8.612;2023-05-07T16:39:06;6.38;;;2.30;;
1106;SDS011;540;49.448;8.612;2023-05-07T16:41:34;3.22;;;1.90;;
1106;SDS011;540;49.448;8.612;2023-05-07T16:44:02;4.80;;;2.10;;
1106;SDS011;540;49.448;8.612;2023-05-07T16:46:30;4.50;;;2.15;;
1106;SDS011;540;49.448;8.612;2023-05-07T16:48:58;3.40;;;2.10;;
1106;SDS011;540;49.448;8.612;2023-05-07T16:51:26;5.13;;;2.60;;
1106;SDS011;540;49.448;8.612;2023-05-07T16:53:54;3.80;;;2.28;;
1106;SDS011;540;49.448;8.612;2023-05-07T16:56:23;3.72;;;2.42;;
1106;SDS011;540;49.448;8.612;2023-05-07T16:58:51;3.75;;;2.80;;
1106;SDS011;540;49.448;8.612;2023-05-07T17:01:19;6.72;;;2.88;;
1106;SDS011;540;49.448;8.612;2023-05-07T17:03:46;9.68;;;2.80;;
1106;SDS011;540;49.448;8.612;2023-05-07T17:06:14;4.35;;;2.40;;
1106;SDS011;540;49.448;8.612;2023-05-07T17:08:42;10.73;;;3.45;;
1106;SDS011;540;49.448;8.612;2023-05-07T17:11:10;4.50;;;2.90;;
1106;SDS011;540;49.448;8.612;2023-05-07T17:13:39;5.78;;;3.13;;
1106;SDS011;540;49.448;8.612;2023-05-07T17:16:07;5.43;;;3.20;;
1106;SDS011;540;49.448;8.612;2023-05-07T17:18:35;6.22;;;3.25;;
1106;SDS011;540;49.448;8.612;2023-05-07T17:21:03;6.68;;;3.53;;
1106;SDS011;540;49.448;8.612;2023-05-07T17:23:30;4.53;;;3.20;;
1106;SDS011;540;49.448;8.612;2023-05-07T17:25:58;5.95;;;2.42;;
1106;SDS011;540;49.448;8.612;2023-05-07T17:28:26;3.88;;;2.00;;
1106;SDS011;540;49.448;8.612;2023-05-07T17:30:55;5.60;;;2.13;;
1106;SDS011;540;49.448;8.612;2023-05-07T17:33:23;2.25;;;1.88;;
1106;SDS011;540;49.448;8.612;2023-05-07T17:35:51;3.95;;;2.17;;
1106;SDS011;540;49.448;8.612;2023-05-07T17:38:19;2.72;;;1.77;;
1106;SDS011;540;49.448;8.612;2023-05-07T17:40:47;7.95;;;3.53;;
1106;SDS011;540;49.448;8.612;2023-05-07T17:43:15;5.53;;;2.78;;
1106;SDS011;540;49.448;8.612;2023-05-07T17:45:43;8.57;;;3.13;;
1106;SDS011;540;49.448;8.612;2023-05-07T17:48:13;6.32;;;2.75;;
1106;SDS011;540;49.448;8.612;2023-05-07T17:50:41;6.00;;;2.78;;
1106;SDS011;540;49.448;8.612;2023-05-07T17:53:09;2.80;;;2.13;;
1106;SDS011;540;49.448;8.612;2023-05-07T17:55:39;7.70;;;2.58;;
1106;SDS011;540;49.448;8.612;2023-05-07T17:58:08;3.88;;;1.80;;
1106;SDS011;540;49.448;8.612;2023-05-07T18:00:37;3.40;;;2.08;;
1106;SDS011;540;49.448;8.612;2023-05-07T18:03:04;5.97;;;2.13;;
1106;SDS011;540;49.448;8.612;2023-05-07T18:05:35;4.90;;;2.50;;
1106;SDS011;540;49.448;8.612;2023-05-07T18:08:04;3.42;;;1.70;;
1106;SDS011;540;49.448;8.612;2023-05-07T18:10:32;5.20;;;2.78;;
1106;SDS011;540;49.448;8.612;2023-05-07T18:13:00;4.03;;;2.05;;
1106;SDS011;540;49.448;8.612;2023-05-07T18:15:28;3.70;;;2.35;;
1106;SDS011;540;49.448;8.612;2023-05-07T18:17:56;3.83;;;2.67;;
1106;SDS011;540;49.448;8.612;2023-05-07T18:20:24;4.03;;;2.47;;
1106;SDS011;540;49.448;8.612;2023-05-07T18:22:53;5.50;;;2.90;;
1106;SDS011;540;49.448;8.612;2023-05-07T18:25:21;4.18;;;3.00;;
1106;SDS011;540;49.448;8.612;2023-05-07T18:27:48;5.53;;;3.15;;
1106;SDS011;540;49.448;8.612;2023-05-07T18:30:16;3.85;;;2.60;;
1106;SDS011;540;49.448;8.612;2023-05-07T18:32:44;6.15;;;3.03;;
1106;SDS011;540;49.448;8.612;2023-05-07T18:35:12;8.27;;;3.28;;
1106;SDS011;540;49.448;8.612;2023-05-07T18:37:41;4.20;;;2.63;;
1106;SDS011;540;49.448;8.612;2023-05-07T18:40:11;4.93;;;2.45;;
1106;SDS011;540;49.448;8.612;2023-05-07T18:42:40;4.18;;;2.42;;
1106;SDS011;540;49.448;8.612;2023-05-07T18:45:08;6.20;;;2.83;;
1106;SDS011;540;49.448;8.612;2023-05-07T18:47:36;4.25;;;2.55;;
1106;SDS011;540;49.448;8.612;2023-05-07T18:50:04;5.65;;;3.53;;
1106;SDS011;540;49.448;8.612;2023-05-07T18:52:34;6.00;;;3.65;;
1106;SDS011;540;49.448;8.612;2023-05-07T18:55:02;5.47;;;3.22;;
1106;SDS011;540;49.448;8.612;2023-05-07T18:57:32;5.25;;;3.70;;
1106;SDS011;540;49.448;8.612;2023-05-07T18:59:59;5.43;;;3.53;;
1106;SDS011;540;49.448;8.612;2023-05-07T19:02:27;6.25;;;3.25;;
1106;SDS011;540;49.448;8.612;2023-05-07T19:04:55;7.45;;;4.00;;
1106;SDS011;540;49.448;8.612;2023-05-07T19:07:23;7.38;;;3.60;;
1106;SDS011;540;49.448;8.612;2023-05-07T19:09:51;5.65;;;4.13;;
1106;SDS011;540;49.448;8.612;2023-05-07T19:12:32;4.32;;;3.30;;
1106;SDS011;540;49.448;8.612;2023-05-07T19:15:00;6.10;;;3.38;;
1106;SDS011;540;49.448;8.612;2023-05-07T19:17:27;7.93;;;3.58;;
1106;SDS011;540;49.448;8.612;2023-05-07T19:19:55;4.07;;;2.67;;
1106;SDS011;540;49.448;8.612;2023-05-07T19:22:23;5.40;;;3.17;;
1106;SDS011;540;49.448;8.612;2023-05-07T19:24:51;5.43;;;2.60;;
1106;SDS011;540;49.448;8.612;2023-05-07T19:27:19;4.28;;;2.33;;
1106;SDS011;540;49.448;8.612;2023-05-07T19:29:48;3.15;;;2.55;;
1106;SDS011;540;49.448;8.612;2023-05-07T19:32:16;4.07;;;2.72;;
1106;SDS011;540;49.448;8.612;2023-05-07T19:34:46;3.25;;;2.30;;
1106;SDS011;540;49.448;8.612;2023-05-07T19:37:14;8.73;;;2.85;;
1106;SDS011;540;49.448;8.612;2023-05-07T19:39:42;4.28;;;2.83;;
1106;SDS011;540;49.448;8.612;2023-05-07T19:42:10;6.50;;;3.60;;
1106;SDS011;540;49.448;8.612;2023-05-07T19:44:39;5.63;;;3.65;;
1106;SDS011;540;49.448;8.612;2023-05-07T19:47:09;3.70;;;2.95;;
1106;SDS011;540;49.448;8.612;2023-05-07T19:49:37;4.30;;;2.83;;
1106;SDS011;540;49.448;8.612;2023-05-07T19:52:04;3.42;;;2.60;;
1106;SDS011;540;49.448;8.612;2023-05-07T19:54:32;6.13;;;3.28;;
1106;SDS011;540;49.448;8.612;2023-05-07T19:57:00;5.88;;;3.65;;
1106;SDS011;540;49.448;8.612;2023-05-07T19:59:28;5.32;;;2.90;;
1106;SDS011;540;49.448;8.612;2023-05-07T20:01:56;9.30;;;3.63;;
1106;SDS011;540;49.448;8.612;2023-05-07T20:04:25;8.25;;;4.30;;
1106;SDS011;540;49.448;8.612;2023-05-07T20:06:58;5.97;;;3.83;;
1106;SDS011;540;49.448;8.612;2023-05-07T20:09:26;5.05;;;3.42;;
1106;SDS011;540;49.448;8.612;2023-05-07T20:11:53;5.68;;;3.78;;
1106;SDS011;540;49.448;8.612;2023-05-07T20:14:21;5.47;;;3.80;;
1106;SDS011;540;49.448;8.612;2023-05-07T20:16:49;7.63;;;3.63;;
1106;SDS011;540;49.448;8.612;2023-05-07T20:19:17;7.15;;;4.82;;
1106;SDS011;540;49.448;8.612;2023-05-07T20:21:47;7.93;;;6.05;;
1106;SDS011;540;49.448;8.612;2023-05-07T20:24:15;9.30;;;5.90;;
1106;SDS011;540;49.448;8.612;2023-05-07T20:26:44;6.90;;;5.60;;
1106;SDS011;540;49.448;8.612;2023-05-07T20:29:12;8.93;;;6.13;;
1106;SDS011;540;49.448;8.612;2023-05-07T20:31:40;14.07;;;7.07;;
1106;SDS011;540;49.448;8.612;2023-05-07T20:34:08;8.68;;;6.18;;
1106;SDS011;540;49.448;8.612;2023-05-07T20:36:36;11.40;;;6.63;;
1106;SDS011;540;49.448;8.612;2023-05-07T20:39:06;10.13;;;6.70;;
1106;SDS011;540;49.448;8.612;2023-05-07T20:41:34;10.13;;;7.25;;
1106;SDS011;540;49.448;8.612;2023-05-07T20:44:01;12.98;;;6.55;;
1106;SDS011;540;49.448;8.612;2023-05-07T20:46:29;10.23;;;6.97;;
1106;SDS011;540;49.448;8.612;2023-05-07T20:48:57;10.57;;;7.38;;
1106;SDS011;540;49.448;8.612;2023-05-07T20:51:26;10.65;;;7.32;;
1106;SDS011;540;49.448;8.612;2023-05-07T20:53:54;26.58;;;7.50;;
1106;SDS011;540;49.448;8.612;2023-05-07T20:56:23;10.27;;;7.20;;
1106;SDS011;540;49.448;8.612;2023-05-07T20:58:51;13.85;;;8.23;;
1106;SDS011;540;49.448;8.612;2023-05-07T21:01:19;10.93;;;7.90;;
1106;SDS011;540;49.448;8.612;2023-05-07T21:03:47;11.85;;;7.25;;
1106;SDS011;540;49.448;8.612;2023-05-07T21:06:18;10.25;;;7.70;;
1106;SDS011;540;49.448;8.612;2023-05-07T21:08:46;10.98;;;8.20;;
1106;SDS011;540;49.448;8.612;2023-05-07T21:11:14;12.25;;;9.07;;
1106;SDS011;540;49.448;8.612;2023-05-07T21:13:44;12.23;;;8.77;;
1106;SDS011;540;49.448;8.612;2023-05-07T21:16:12;11.98;;;8.02;;
1106;SDS011;540;49.448;8.612;2023-05-07T21:18:40;12.18;;;8.80;;
1106;SDS011;540;49.448;8.612;2023-05-07T21:21:08;11.38;;;6.78;;
1106;SDS011;540;49.448;8.612;2023-05-07T21:23:36;9.35;;;5.75;;
1106;SDS011;540;49.448;8.612;2023-05-07T21:26:04;8.98;;;5.97;;
1106;SDS011;540;49.448;8.612;2023-05-07T21:28:32;6.07;;;4.88;;
1106;SDS011;540;49.448;8.612;2023-05-07T21:31:01;8.20;;;4.53;;
1106;SDS011;540;49.448;8.612;2023-05-07T21:33:29;7.50;;;4.72;;
1106;SDS011;540;49.448;8.612;2023-05-07T21:35:57;7.53;;;3.58;;
1106;SDS011;540;49.448;8.612;2023-05-07T21:38:24;5.28;;;3.78;;
1106;SDS011;540;49.448;8.612;2023-05-07T21:40:52;4.82;;;3.70;;
1106;SDS011;540;49.448;8.612;2023-05-07T21:43:20;5.65;;;3.63;;
1106;SDS011;540;49.448;8.612;2023-05-07T21:45:48;6.47;;;3.90;;
1106;SDS011;540;49.448;8.612;2023-05-07T21:48:17;5.13;;;3.58;;
1106;SDS011;540;49.448;8.612;2023-05-07T21:50:47;4.03;;;2.85;;
1106;SDS011;540;49.448;8.612;2023-05-07T21:53:15;6.22;;;3.97;;
1106;SDS011;540;49.448;8.612;2023-05-07T21:55:42;7.55;;;3.78;;
1106;SDS011;540;49.448;8.612;2023-05-07T21:58:10;5.53;;;4.00;;
1106;SDS011;540;49.448;8.612;2023-05-07T22:00:38;14.80;;;4.50;;
1106;SDS011;540;49.448;8.612;2023-05-07T22:03:06;7.55;;;3.65;;
1106;SDS011;540;49.448;8.612;2023-05-07T22:05:35;10.88;;;5.63;;
1106;SDS011;540;49.448;8.612;2023-05-07T22:08:03;7.35;;;4.82;;
1106;SDS011;540;49.448;8.612;2023-05-07T22:10:31;6.75;;;5.22;;
1106;SDS011;540;49.448;8.612;2023-05-07T22:12:59;6.25;;;4.45;;
1106;SDS011;540;49.448;8.612;2023-05-07T22:15:27;11.00;;;4.57;;
1106;SDS011;540;49.448;8.612;2023-05-07T22:17:54;7.30;;;4.32;;
1106;SDS011;540;49.448;8.612;2023-05-07T22:20:22;7.05;;;4.70;;
1106;SDS011;540;49.448;8.612;2023-05-07T22:22:52;6.45;;;4.30;;
1106;SDS011;540;49.448;8.612;2023-05-07T22:25:21;4.30;;;3.30;;
1106;SDS011;540;49.448;8.612;2023-05-07T22:27:50;6.13;;;2.97;;
1106;SDS011;540;49.448;8.612;2023-05-07T22:30:18;7.20;;;3.20;;
1106;SDS011;540;49.448;8.612;2023-05-07T22:32:46;5.57;;;3.42;;
1106;SDS011;540;49.448;8.612;2023-05-07T22:35:14;5.38;;;3.15;;
1106;SDS011;540;49.448;8.612;2023-05-07T22:37:42;5.80;;;3.35;;
1106;SDS011;540;49.448;8.612;2023-05-07T22:40:11;6.65;;;3.55;;
1106;SDS011;540;49.448;8.612;2023-05-07T22:42:39;6.45;;;3.45;;
1106;SDS011;540;49.448;8.612;2023-05-07T22:45:07;6.22;;;2.50;;
1106;SDS011;540;49.448;8.612;2023-05-07T22:47:36;3.92;;;3.10;;
1106;SDS011;540;49.448;8.612;2023-05-07T22:50:04;3.10;;;2.53;;
1106;SDS011;540;49.448;8.612;2023-05-07T22:52:33;3.00;;;2.42;;
1106;SDS011;540;49.448;8.612;2023-05-07T22:55:01;4.63;;;3.00;;
1106;SDS011;540;49.448;8.612;2023-05-07T22:57:30;3.28;;;2.40;;
1106;SDS011;540;49.448;8.612;2023-05-07T22:59:57;3.33;;;2.33;;
1106;SDS011;540;49.448;8.612;2023-05-07T23:02:26;4.63;;;2.60;;
1106;SDS011;540;49.448;8.612;2023-05-07T23:04:56;4.50;;;2.58;;
1106;SDS011;540;49.448;8.612;2023-05-07T23:07:24;4.20;;;3.10;;
1106;SDS011;540;49.448;8.612;2023-05-07T23:09:52;4.70;;;2.78;;
1106;SDS011;540;49.448;8.612;2023-05-07T23:12:20;4.40;;;2.60;;
1106;SDS011;540;49.448;8.612;2023-05-07T23:14:49;3.40;;;2.72;;
1106;SDS011;540;49.448;8.612;2023-05-07T23:17:17;3.85;;;2.80;;
1106;SDS011;540;49.448;8.612;2023-05-07T23:19:45;4.72;;;2.70;;
1106;SDS011;540;49.448;8.612;2023-05-07T23:22:12;3.65;;;2.90;;
1106;SDS011;540;49.448;8.612;2023-05-07T23:24:41;3.55;;;3.25;;
1106;SDS011;540;49.448;8.612;2023-05-07T23:27:08;11.00;;;3.85;;
1106;SDS011;540;49.448;8.612;2023-05-07T23:29:36;3.80;;;3.03;;
1106;SDS011;540;49.448;8.612;2023-05-07T23:32:05;3.53;;;3.00;;
1106;SDS011;540;49.448;8.612;2023-05-07T23:34:33;5.45;;;3.08;;
1106;SDS011;540;49.448;8.612;2023-05-07T23:37:01;4.80;;;2.90;;
1106;SDS011;540;49.448;8.612;2023-05-07T23:39:29;7.28;;;3.63;;
1106;SDS011;540;49.448;8.612;2023-05-07T23:41:56;4.57;;;2.70;;
1106;SDS011;540;49.448;8.612;2023-05-07T23:44:24;7.95;;;3.20;;
1106;SDS011;540;49.448;8.612;2023-05-07T23:46:52;4.43;;;3.67;;
1106;SDS011;540;49.448;8.612;2023-05-07T23:49:21;4.90;;;3.83;;
1106;SDS011;540;49.448;8.612;2023-05-07T23:51:49;4.40;;;3.90;;
1106;SDS011;540;49.448;8.612;2023-05-07T23:54:16;4.80;;;3.40;;
1106;SDS011;540;49.448;8.612;2023-05-07T23:56:44;6.22;;;3.47;;
1106;SDS011;540;49.448;8.612;2023-05-07T23:59:12;8.95;;;4.38;;
